sensor_id;sensor_type;location;lat;lon;timestamp;pressure;altitude;pressure_sealevel;temperature;humidity
15674;BME280;7937;48.090;16.212;2024-03-17T00:01:45;98140.25;;;8.55;100.00
15674;BME280;7937;48.090;16.212;2024-03-17T00:04:46;98143.47;;;8.38;100.00
15674;BME280;7937;48.090;16.212;2024-03-17T00:07:47;98146.72;;;8.40;100.00
15674;BME280;7937;48.090;16.212;2024-03-17T00:10:56;98135.34;;;8.26;100.00
15674;BME280;7937;48.090;16.212;2024-03-17T00:13:57;98151.50;;;8.25;100.00
15674;BME280;7937;48.090;16.212;2024-03-17T00:16:58;98157.84;;;8.24;100.00
15674;BME280;7937;48.090;16.212;2024-03-17T00:20:00;98146.75;;;8.27;100.00
15674;BME280;7937;48.090;16.212;2024-03-17T00:23:05;98152.03;;;8.40;100.00
15674;BME280;7937;48.090;16.212;2024-03-17T00:26:10;98156.53;;;8.40;100.00
15674;BME280;7937;48.090;16.212;2024-03-17T00:29:11;98160.16;;;8.14;100.00
15674;BME280;7937;48.090;16.212;2024-03-17T00:32:12;98162.47;;;7.97;100.00
15674;BME280;7937;48.090;16.212;2024-03-17T00:35:13;98164.59;;;7.82;100.00
15674;BME280;7937;48.090;16.212;2024-03-17T00:38:21;98174.22;;;7.76;100.00
15674;BME280;7937;48.090;16.212;2024-03-17T00:41:22;98166.94;;;7.65;100.00
15674;BME280;7937;48.090;16.212;2024-03-17T00:44:24;98166.75;;;7.60;100.00
15674;BME280;7937;48.090;16.212;2024-03-17T00:47:25;98151.84;;;7.65;100.00
15674;BME280;7937;48.090;16.212;2024-03-17T00:50:26;98162.00;;;7.68;100.00
15674;BME280;7937;48.090;16.212;2024-03-17T00:53:28;98167.28;;;7.75;100.00
15674;BME280;7937;48.090;16.212;2024-03-17T00:56:29;98161.59;;;7.71;100.00
15674;BME280;7937;48.090;16.212;2024-03-17T00:59:31;98169.50;;;7.78;100.00
15674;BME280;7937;48.090;16.212;2024-03-17T01:02:32;98169.28;;;7.86;100.00
15674;BME280;7937;48.090;16.212;2024-03-17T01:05:33;98157.63;;;7.87;100.00
15674;BME280;7937;48.090;16.212;2024-03-17T01:08:34;98178.41;;;7.97;100.00
15674;BME280;7937;48.090;16.212;2024-03-17T01:11:35;98162.47;;;7.97;100.00
15674;BME280;7937;48.090;16.212;2024-03-17T01:14:36;98186.69;;;8.07;100.00
15674;BME280;7937;48.090;16.212;2024-03-17T01:17:37;98179.47;;;8.27;99.22
15674;BME280;7937;48.090;16.212;2024-03-17T01:20:38;98167.16;;;8.33;97.67
15674;BME280;7937;48.090;16.212;2024-03-17T01:23:40;98176.13;;;8.32;99.11
15674;BME280;7937;48.090;16.212;2024-03-17T01:26:41;98173.94;;;8.29;99.38
15674;BME280;7937;48.090;16.212;2024-03-17T01:29:42;98169.91;;;8.51;97.05
15674;BME280;7937;48.090;16.212;2024-03-17T01:32:46;98178.97;;;8.37;99.72
15674;BME280;7937;48.090;16.212;2024-03-17T01:35:47;98178.63;;;8.27;100.00
15674;BME280;7937;48.090;16.212;2024-03-17T01:38:49;98161.06;;;8.26;99.92
15674;BME280;7937;48.090;16.212;2024-03-17T01:41:51;98183.81;;;8.47;98.77
15674;BME280;7937;48.090;16.212;2024-03-17T01:44:53;98178.31;;;8.48;97.17
15674;BME280;7937;48.090;16.212;2024-03-17T01:47:54;98178.59;;;8.34;99.39
15674;BME280;7937;48.090;16.212;2024-03-17T01:50:58;98170.22;;;8.37;99.06
15674;BME280;7937;48.090;16.212;2024-03-17T01:53:59;98170.47;;;8.28;100.00
15674;BME280;7937;48.090;16.212;2024-03-17T01:57:01;98185.19;;;8.24;100.00
15674;BME280;7937;48.090;16.212;2024-03-17T02:00:02;98186.22;;;8.23;100.00
15674;BME280;7937;48.090;16.212;2024-03-17T02:03:09;98170.53;;;8.15;98.70
15674;BME280;7937;48.090;16.212;2024-03-17T02:06:10;98193.91;;;8.38;96.93
15674;BME280;7937;48.090;16.212;2024-03-17T02:09:11;98188.59;;;8.38;96.02
15674;BME280;7937;48.090;16.212;2024-03-17T02:12:13;98193.47;;;8.41;88.98
15674;BME280;7937;48.090;16.212;2024-03-17T02:15:15;98194.28;;;8.42;86.31
15674;BME280;7937;48.090;16.212;2024-03-17T02:18:16;98205.13;;;8.34;86.14
15674;BME280;7937;48.090;16.212;2024-03-17T02:21:17;98194.81;;;8.19;84.85
15674;BME280;7937;48.090;16.212;2024-03-17T02:24:18;98200.16;;;8.12;85.19
15674;BME280;7937;48.090;16.212;2024-03-17T02:27:19;98193.50;;;7.96;85.09
15674;BME280;7937;48.090;16.212;2024-03-17T02:30:20;98184.59;;;7.84;84.98
15674;BME280;7937;48.090;16.212;2024-03-17T02:33:21;98184.47;;;7.66;82.47
15674;BME280;7937;48.090;16.212;2024-03-17T02:36:23;98191.75;;;7.77;79.36
15674;BME280;7937;48.090;16.212;2024-03-17T02:39:24;98191.75;;;7.77;80.11
15674;BME280;7937;48.090;16.212;2024-03-17T02:42:51;98205.72;;;7.59;76.53
15674;BME280;7937;48.090;16.212;2024-03-17T02:45:53;98219.59;;;7.48;78.62
15674;BME280;7937;48.090;16.212;2024-03-17T02:48:54;98193.53;;;7.45;76.21
15674;BME280;7937;48.090;16.212;2024-03-17T02:51:55;98223.06;;;7.48;74.02
15674;BME280;7937;48.090;16.212;2024-03-17T02:54:56;98225.72;;;7.48;73.65
15674;BME280;7937;48.090;16.212;2024-03-17T02:57:57;98223.47;;;7.52;73.63
15674;BME280;7937;48.090;16.212;2024-03-17T03:00:58;98222.28;;;7.41;73.86
15674;BME280;7937;48.090;16.212;2024-03-17T03:03:59;98210.47;;;7.24;73.87
15674;BME280;7937;48.090;16.212;2024-03-17T03:07:00;98237.19;;;7.22;74.61
15674;BME280;7937;48.090;16.212;2024-03-17T03:10:01;98225.19;;;7.20;73.49
15674;BME280;7937;48.090;16.212;2024-03-17T03:13:02;98223.75;;;7.17;73.37
15674;BME280;7937;48.090;16.212;2024-03-17T03:16:06;98227.81;;;7.27;73.35
15674;BME280;7937;48.090;16.212;2024-03-17T03:19:07;98220.91;;;7.12;73.91
15674;BME280;7937;48.090;16.212;2024-03-17T03:22:08;98245.56;;;6.93;74.88
15674;BME280;7937;48.090;16.212;2024-03-17T03:25:09;98219.09;;;6.73;74.07
15674;BME280;7937;48.090;16.212;2024-03-17T03:28:10;98251.91;;;6.85;73.70
15674;BME280;7937;48.090;16.212;2024-03-17T03:31:12;98257.00;;;6.80;75.01
15674;BME280;7937;48.090;16.212;2024-03-17T03:34:16;98262.69;;;6.84;74.73
15674;BME280;7937;48.090;16.212;2024-03-17T03:37:17;98262.28;;;6.87;72.70
15674;BME280;7937;48.090;16.212;2024-03-17T03:40:18;98260.25;;;6.82;73.15
15674;BME280;7937;48.090;16.212;2024-03-17T03:43:19;98258.63;;;6.81;72.54
15674;BME280;7937;48.090;16.212;2024-03-17T03:46:20;98274.09;;;6.71;72.60
15674;BME280;7937;48.090;16.212;2024-03-17T03:49:21;98277.34;;;6.66;71.96
15674;BME280;7937;48.090;16.212;2024-03-17T03:52:22;98270.63;;;6.51;73.57
15674;BME280;7937;48.090;16.212;2024-03-17T03:55:23;98269.59;;;6.58;73.85
15674;BME280;7937;48.090;16.212;2024-03-17T03:58:25;98270.63;;;6.70;72.80
15674;BME280;7937;48.090;16.212;2024-03-17T04:01:26;98272.66;;;6.55;74.80
15674;BME280;7937;48.090;16.212;2024-03-17T04:04:27;98267.75;;;6.59;71.98
15674;BME280;7937;48.090;16.212;2024-03-17T04:07:29;98269.16;;;6.41;74.31
15674;BME280;7937;48.090;16.212;2024-03-17T04:10:30;98281.75;;;6.39;73.75
15674;BME280;7937;48.090;16.212;2024-03-17T04:13:31;98259.72;;;6.12;75.39
15674;BME280;7937;48.090;16.212;2024-03-17T04:16:33;98291.91;;;6.29;75.54
15674;BME280;7937;48.090;16.212;2024-03-17T04:19:35;98277.44;;;6.18;75.20
15674;BME280;7937;48.090;16.212;2024-03-17T04:22:36;98288.19;;;6.10;76.45
15674;BME280;7937;48.090;16.212;2024-03-17T04:25:39;98300.44;;;6.25;77.62
15674;BME280;7937;48.090;16.212;2024-03-17T04:28:40;98294.13;;;6.19;76.20
15674;BME280;7937;48.090;16.212;2024-03-17T04:31:41;98300.06;;;6.21;76.72
15674;BME280;7937;48.090;16.212;2024-03-17T04:34:43;98292.66;;;6.03;76.89
15674;BME280;7937;48.090;16.212;2024-03-17T04:37:47;98306.75;;;6.17;76.43
15674;BME280;7937;48.090;16.212;2024-03-17T04:40:48;98306.47;;;6.05;77.36
15674;BME280;7937;48.090;16.212;2024-03-17T04:43:49;98318.66;;;6.00;77.46
15674;BME280;7937;48.090;16.212;2024-03-17T04:46:50;98313.38;;;6.00;77.72
15674;BME280;7937;48.090;16.212;2024-03-17T04:49:51;98311.53;;;5.93;76.74
15674;BME280;7937;48.090;16.212;2024-03-17T04:52:53;98317.97;;;5.91;77.39
15674;BME280;7937;48.090;16.212;2024-03-17T04:56:02;98316.44;;;5.97;76.42
15674;BME280;7937;48.090;16.212;2024-03-17T04:59:05;98303.81;;;5.99;77.01
15674;BME280;7937;48.090;16.212;2024-03-17T05:02:06;98311.38;;;6.08;76.14
15674;BME280;7937;48.090;16.212;2024-03-17T05:05:08;98311.88;;;5.90;77.53
15674;BME280;7937;48.090;16.212;2024-03-17T05:08:11;98305.44;;;6.00;74.71
15674;BME280;7937;48.090;16.212;2024-03-17T05:11:12;98309.09;;;5.92;74.99
15674;BME280;7937;48.090;16.212;2024-03-17T05:14:15;98313.69;;;5.83;75.71
15674;BME280;7937;48.090;16.212;2024-03-17T05:17:16;98326.78;;;5.91;74.32
15674;BME280;7937;48.090;16.212;2024-03-17T05:20:17;98333.78;;;5.78;74.67
15674;BME280;7937;48.090;16.212;2024-03-17T05:23:19;98340.50;;;5.80;75.56
15674;BME280;7937;48.090;16.212;2024-03-17T05:26:20;98333.28;;;5.95;73.60
15674;BME280;7937;48.090;16.212;2024-03-17T05:29:21;98336.25;;;5.86;74.52
15674;BME280;7937;48.090;16.212;2024-03-17T05:32:23;98342.88;;;5.97;74.61
15674;BME280;7937;48.090;16.212;2024-03-17T05:35:24;98346.25;;;5.90;73.19
15674;BME280;7937;48.090;16.212;2024-03-17T05:38:26;98332.53;;;5.74;72.91
15674;BME280;7937;48.090;16.212;2024-03-17T05:41:28;98345.22;;;5.85;73.18
15674;BME280;7937;48.090;16.212;2024-03-17T05:44:29;98345.44;;;5.90;72.18
15674;BME280;7937;48.090;16.212;2024-03-17T05:47:34;98342.97;;;5.82;71.23
15674;BME280;7937;48.090;16.212;2024-03-17T05:50:35;98353.38;;;5.90;71.83
15674;BME280;7937;48.090;16.212;2024-03-17T05:53:38;98332.78;;;5.79;72.45
15674;BME280;7937;48.090;16.212;2024-03-17T05:56:42;98326.66;;;5.78;71.54
15674;BME280;7937;48.090;16.212;2024-03-17T05:59:43;98343.38;;;5.85;71.42
15674;BME280;7937;48.090;16.212;2024-03-17T06:02:44;98359.31;;;5.92;71.46
15674;BME280;7937;48.090;16.212;2024-03-17T06:05:47;98365.25;;;6.01;71.55
15674;BME280;7937;48.090;16.212;2024-03-17T06:08:49;98362.59;;;5.94;72.16
15674;BME280;7937;48.090;16.212;2024-03-17T06:11:50;98356.28;;;5.95;69.97
15674;BME280;7937;48.090;16.212;2024-03-17T06:14:51;98353.03;;;5.93;70.43
15674;BME280;7937;48.090;16.212;2024-03-17T06:17:53;98360.16;;;5.99;70.59
15674;BME280;7937;48.090;16.212;2024-03-17T06:20:55;98352.25;;;6.06;70.01
15674;BME280;7937;48.090;16.212;2024-03-17T06:24:01;98349.72;;;5.91;70.02
15674;BME280;7937;48.090;16.212;2024-03-17T06:27:02;98348.88;;;6.18;71.64
15674;BME280;7937;48.090;16.212;2024-03-17T06:30:04;98338.03;;;6.07;70.12
15674;BME280;7937;48.090;16.212;2024-03-17T06:33:05;98353.69;;;6.02;70.71
15674;BME280;7937;48.090;16.212;2024-03-17T06:36:06;98357.41;;;6.14;69.41
15674;BME280;7937;48.090;16.212;2024-03-17T06:39:07;98363.34;;;6.23;71.05
15674;BME280;7937;48.090;16.212;2024-03-17T06:42:08;98361.31;;;6.25;69.45
15674;BME280;7937;48.090;16.212;2024-03-17T06:45:10;98371.94;;;6.38;70.21
15674;BME280;7937;48.090;16.212;2024-03-17T06:48:11;98369.56;;;6.56;66.72
15674;BME280;7937;48.090;16.212;2024-03-17T06:51:12;98376.13;;;6.60;67.49
15674;BME280;7937;48.090;16.212;2024-03-17T06:54:13;98372.44;;;6.61;66.83
15674;BME280;7937;48.090;16.212;2024-03-17T06:57:14;98373.25;;;6.62;65.86
15674;BME280;7937;48.090;16.212;2024-03-17T07:00:15;98366.34;;;6.61;67.06
15674;BME280;7937;48.090;16.212;2024-03-17T07:03:17;98377.31;;;6.51;69.36
15674;BME280;7937;48.090;16.212;2024-03-17T07:06:18;98373.41;;;6.54;67.52
15674;BME280;7937;48.090;16.212;2024-03-17T07:09:19;98370.59;;;6.62;69.10
15674;BME280;7937;48.090;16.212;2024-03-17T07:12:20;98389.72;;;6.51;69.39
15674;BME280;7937;48.090;16.212;2024-03-17T07:15:21;98383.13;;;6.40;70.95
15674;BME280;7937;48.090;16.212;2024-03-17T07:18:22;98389.75;;;6.64;69.90
15674;BME280;7937;48.090;16.212;2024-03-17T07:21:23;98391.84;;;6.75;67.78
15674;BME280;7937;48.090;16.212;2024-03-17T07:24:24;98392.44;;;6.84;68.94
15674;BME280;7937;48.090;16.212;2024-03-17T07:27:26;98392.66;;;6.76;67.62
15674;BME280;7937;48.090;16.212;2024-03-17T07:30:27;98396.72;;;6.78;70.73
15674;BME280;7937;48.090;16.212;2024-03-17T07:33:28;98387.19;;;7.04;66.64
15674;BME280;7937;48.090;16.212;2024-03-17T07:36:30;98377.78;;;6.81;67.12
15674;BME280;7937;48.090;16.212;2024-03-17T07:39:31;98390.06;;;7.15;65.88
15674;BME280;7937;48.090;16.212;2024-03-17T07:42:36;98397.63;;;7.25;66.09
15674;BME280;7937;48.090;16.212;2024-03-17T07:45:37;98399.03;;;7.21;66.84
15674;BME280;7937;48.090;16.212;2024-03-17T07:48:43;98397.41;;;7.33;67.38
15674;BME280;7937;48.090;16.212;2024-03-17T07:51:44;98391.13;;;7.34;67.05
15674;BME280;7937;48.090;16.212;2024-03-17T07:54:45;98369.91;;;7.21;65.89
15674;BME280;7937;48.090;16.212;2024-03-17T07:57:47;98387.44;;;7.55;65.63
15674;BME280;7937;48.090;16.212;2024-03-17T08:00:48;98400.09;;;7.40;65.34
15674;BME280;7937;48.090;16.212;2024-03-17T08:03:49;98405.19;;;7.55;65.13
15674;BME280;7937;48.090;16.212;2024-03-17T08:06:56;98406.81;;;7.49;67.50
15674;BME280;7937;48.090;16.212;2024-03-17T08:09:57;98404.56;;;7.39;65.99
15674;BME280;7937;48.090;16.212;2024-03-17T08:12:58;98409.66;;;7.47;65.00
15674;BME280;7937;48.090;16.212;2024-03-17T08:16:02;98407.63;;;7.30;65.89
15674;BME280;7937;48.090;16.212;2024-03-17T08:19:03;98402.94;;;7.25;65.08
15674;BME280;7937;48.090;16.212;2024-03-17T08:22:04;98405.97;;;7.15;64.71
15674;BME280;7937;48.090;16.212;2024-03-17T08:25:06;98370.28;;;7.11;65.27
15674;BME280;7937;48.090;16.212;2024-03-17T08:28:07;98395.38;;;7.29;66.40
15674;BME280;7937;48.090;16.212;2024-03-17T08:31:08;98384.16;;;7.46;65.74
15674;BME280;7937;48.090;16.212;2024-03-17T08:34:09;98393.97;;;7.66;64.96
15674;BME280;7937;48.090;16.212;2024-03-17T08:37:10;98382.75;;;7.64;66.04
15674;BME280;7937;48.090;16.212;2024-03-17T08:40:11;98384.97;;;7.80;64.28
15674;BME280;7937;48.090;16.212;2024-03-17T08:43:13;98382.94;;;7.69;63.96
15674;BME280;7937;48.090;16.212;2024-03-17T08:46:14;98381.50;;;7.66;64.92
15674;BME280;7937;48.090;16.212;2024-03-17T08:49:15;98377.66;;;7.69;64.98
15674;BME280;7937;48.090;16.212;2024-03-17T08:52:19;98380.06;;;7.77;63.36
15674;BME280;7937;48.090;16.212;2024-03-17T08:55:21;98383.53;;;7.84;65.33
15674;BME280;7937;48.090;16.212;2024-03-17T08:58:23;98377.81;;;7.81;65.84
15674;BME280;7937;48.090;16.212;2024-03-17T09:01:24;98372.72;;;7.72;65.31
15674;BME280;7937;48.090;16.212;2024-03-17T09:04:25;98377.63;;;7.89;63.75
15674;BME280;7937;48.090;16.212;2024-03-17T09:07:26;98386.34;;;8.02;64.03
15674;BME280;7937;48.090;16.212;2024-03-17T09:10:27;98367.34;;;8.06;64.77
15674;BME280;7937;48.090;16.212;2024-03-17T09:13:28;98366.09;;;8.15;63.28
15674;BME280;7937;48.090;16.212;2024-03-17T09:16:29;98356.84;;;8.31;63.96
15674;BME280;7937;48.090;16.212;2024-03-17T09:19:31;98369.84;;;8.52;62.43
15674;BME280;7937;48.090;16.212;2024-03-17T09:22:33;98372.56;;;8.32;62.16
15674;BME280;7937;48.090;16.212;2024-03-17T09:25:34;98346.09;;;8.19;60.99
15674;BME280;7937;48.090;16.212;2024-03-17T09:28:36;98371.34;;;8.41;61.98
15674;BME280;7937;48.090;16.212;2024-03-17T09:31:38;98347.78;;;8.58;60.17
15674;BME280;7937;48.090;16.212;2024-03-17T09:34:40;98345.78;;;8.47;60.42
15674;BME280;7937;48.090;16.212;2024-03-17T09:37:41;98354.25;;;8.24;61.61
15674;BME280;7937;48.090;16.212;2024-03-17T09:40:46;98354.91;;;8.64;62.17
15674;BME280;7937;48.090;16.212;2024-03-17T09:43:48;98340.81;;;8.95;58.86
15674;BME280;7937;48.090;16.212;2024-03-17T09:46:50;98347.31;;;8.99;58.97
15674;BME280;7937;48.090;16.212;2024-03-17T09:49:51;98354.06;;;9.02;58.29
15674;BME280;7937;48.090;16.212;2024-03-17T09:52:52;98350.84;;;8.55;60.71
15674;BME280;7937;48.090;16.212;2024-03-17T09:55:59;98352.97;;;8.33;61.75
15674;BME280;7937;48.090;16.212;2024-03-17T09:59:02;98349.28;;;8.47;61.80
15674;BME280;7937;48.090;16.212;2024-03-17T10:02:15;98342.31;;;8.46;61.66
15674;BME280;7937;48.090;16.212;2024-03-17T10:05:22;98333.88;;;8.63;62.98
15674;BME280;7937;48.090;16.212;2024-03-17T10:08:23;98340.59;;;8.65;62.62
15674;BME280;7937;48.090;16.212;2024-03-17T10:11:32;98348.56;;;8.65;60.00
15674;BME280;7937;48.090;16.212;2024-03-17T10:14:34;98335.50;;;8.64;61.71
15674;BME280;7937;48.090;16.212;2024-03-17T10:17:35;98340.06;;;8.88;62.24
15674;BME280;7937;48.090;16.212;2024-03-17T10:20:37;98322.22;;;8.64;60.50
15674;BME280;7937;48.090;16.212;2024-03-17T10:23:38;98330.63;;;8.92;60.01
15674;BME280;7937;48.090;16.212;2024-03-17T10:26:51;98328.88;;;9.04;58.69
15674;BME280;7937;48.090;16.212;2024-03-17T10:29:52;98317.06;;;9.25;58.38
15674;BME280;7937;48.090;16.212;2024-03-17T10:32:55;98325.16;;;9.12;59.11
15674;BME280;7937;48.090;16.212;2024-03-17T10:36:00;98316.63;;;9.28;58.63
15674;BME280;7937;48.090;16.212;2024-03-17T10:39:02;98311.56;;;9.02;57.69
15674;BME280;7937;48.090;16.212;2024-03-17T10:42:05;98312.47;;;9.14;57.34
15674;BME280;7937;48.090;16.212;2024-03-17T10:45:09;98311.22;;;9.17;57.80
15674;BME280;7937;48.090;16.212;2024-03-17T10:48:14;98302.44;;;9.16;59.10
15674;BME280;7937;48.090;16.212;2024-03-17T10:51:20;98311.81;;;9.44;56.42
15674;BME280;7937;48.090;16.212;2024-03-17T10:54:24;98301.91;;;9.26;58.51
15674;BME280;7937;48.090;16.212;2024-03-17T11:00:37;98302.03;;;9.38;57.74
15674;BME280;7937;48.090;16.212;2024-03-17T11:03:38;98301.53;;;9.47;56.54
15674;BME280;7937;48.090;16.212;2024-03-17T11:06:41;98285.97;;;9.26;55.72
15674;BME280;7937;48.090;16.212;2024-03-17T11:09:42;98293.25;;;9.55;56.17
15674;BME280;7937;48.090;16.212;2024-03-17T11:15:48;98263.94;;;9.44;55.56
15674;BME280;7937;48.090;16.212;2024-03-17T11:18:49;98288.59;;;9.33;55.38
15674;BME280;7937;48.090;16.212;2024-03-17T11:21:50;98284.09;;;9.33;56.78
15674;BME280;7937;48.090;16.212;2024-03-17T11:24:51;98283.84;;;9.35;58.56
15674;BME280;7937;48.090;16.212;2024-03-17T11:27:57;98267.13;;;9.52;55.25
15674;BME280;7937;48.090;16.212;2024-03-17T11:30:58;98260.91;;;9.59;59.90
15674;BME280;7937;48.090;16.212;2024-03-17T11:34:31;98259.50;;;9.74;56.36
15674;BME280;7937;48.090;16.212;2024-03-17T11:37:42;98238.31;;;9.68;56.30
15674;BME280;7937;48.090;16.212;2024-03-17T11:40:43;98251.09;;;9.77;56.85
15674;BME280;7937;48.090;16.212;2024-03-17T11:43:44;98240.13;;;10.04;55.85
15674;BME280;7937;48.090;16.212;2024-03-17T11:49:53;98224.88;;;10.11;54.60
15674;BME280;7937;48.090;16.212;2024-03-17T11:52:58;98228.94;;;10.32;54.74
15674;BME280;7937;48.090;16.212;2024-03-17T11:55:59;98229.69;;;10.21;56.05
15674;BME280;7937;48.090;16.212;2024-03-17T11:59:05;98225.59;;;10.18;57.38
15674;BME280;7937;48.090;16.212;2024-03-17T12:02:17;98218.59;;;10.24;55.15
15674;BME280;7937;48.090;16.212;2024-03-17T12:05:19;98205.09;;;10.49;53.42
15674;BME280;7937;48.090;16.212;2024-03-17T12:08:22;98206.72;;;10.38;53.70
15674;BME280;7937;48.090;16.212;2024-03-17T12:11:23;98195.84;;;10.40;57.08
15674;BME280;7937;48.090;16.212;2024-03-17T12:14:24;98169.84;;;10.65;51.68
15674;BME280;7937;48.090;16.212;2024-03-17T12:17:29;98185.69;;;10.83;51.70
15674;BME280;7937;48.090;16.212;2024-03-17T12:20:30;98184.44;;;10.86;51.87
15674;BME280;7937;48.090;16.212;2024-03-17T12:23:31;98165.09;;;11.02;50.83
15674;BME280;7937;48.090;16.212;2024-03-17T12:26:32;98173.31;;;11.13;50.30
15674;BME280;7937;48.090;16.212;2024-03-17T12:29:36;98170.63;;;11.13;54.76
15674;BME280;7937;48.090;16.212;2024-03-17T12:32:41;98172.75;;;11.10;54.05
15674;BME280;7937;48.090;16.212;2024-03-17T12:35:42;98172.72;;;11.22;51.74
15674;BME280;7937;48.090;16.212;2024-03-17T12:38:43;98166.38;;;11.00;51.23
15674;BME280;7937;48.090;16.212;2024-03-17T12:41:45;98159.06;;;10.95;52.46
15674;BME280;7937;48.090;16.212;2024-03-17T12:45:02;98154.06;;;11.10;50.94
15674;BME280;7937;48.090;16.212;2024-03-17T12:48:10;98152.53;;;11.26;52.04
15674;BME280;7937;48.090;16.212;2024-03-17T12:51:15;98149.88;;;11.38;51.30
15674;BME280;7937;48.090;16.212;2024-03-17T12:54:19;98156.28;;;11.66;50.55
15674;BME280;7937;48.090;16.212;2024-03-17T12:57:21;98138.81;;;11.46;49.95
15674;BME280;7937;48.090;16.212;2024-03-17T13:00:41;98139.81;;;11.17;50.17
15674;BME280;7937;48.090;16.212;2024-03-17T13:03:42;98141.16;;;11.31;50.63
15674;BME280;7937;48.090;16.212;2024-03-17T13:06:45;98104.09;;;11.18;51.50
15674;BME280;7937;48.090;16.212;2024-03-17T13:09:46;98138.91;;;11.51;50.44
15674;BME280;7937;48.090;16.212;2024-03-17T13:12:48;98110.78;;;11.32;50.14
15674;BME280;7937;48.090;16.212;2024-03-17T13:15:58;98119.19;;;11.52;49.04
15674;BME280;7937;48.090;16.212;2024-03-17T13:18:59;98117.13;;;11.54;48.65
15674;BME280;7937;48.090;16.212;2024-03-17T13:22:01;98110.31;;;11.75;48.55
15674;BME280;7937;48.090;16.212;2024-03-17T13:25:02;98099.16;;;11.50;49.29
15674;BME280;7937;48.090;16.212;2024-03-17T13:28:04;98109.13;;;11.43;48.77
15674;BME280;7937;48.090;16.212;2024-03-17T13:31:09;98107.13;;;11.09;51.32
15674;BME280;7937;48.090;16.212;2024-03-17T13:34:11;98098.63;;;11.24;49.67
15674;BME280;7937;48.090;16.212;2024-03-17T13:37:12;98100.91;;;11.44;50.49
15674;BME280;7937;48.090;16.212;2024-03-17T13:40:14;98092.66;;;11.46;51.69
15674;BME280;7937;48.090;16.212;2024-03-17T13:43:19;98088.88;;;11.30;50.16
15674;BME280;7937;48.090;16.212;2024-03-17T13:46:20;98094.47;;;11.17;51.73
15674;BME280;7937;48.090;16.212;2024-03-17T13:49:21;98084.91;;;11.32;50.69
15674;BME280;7937;48.090;16.212;2024-03-17T13:52:23;98077.31;;;11.24;50.19
15674;BME280;7937;48.090;16.212;2024-03-17T13:55:25;98079.06;;;11.19;51.29
15674;BME280;7937;48.090;16.212;2024-03-17T13:58:26;98080.56;;;11.15;51.93
15674;BME280;7937;48.090;16.212;2024-03-17T14:01:27;98067.09;;;11.21;51.08
15674;BME280;7937;48.090;16.212;2024-03-17T14:04:28;98071.06;;;11.47;49.34
15674;BME280;7937;48.090;16.212;2024-03-17T14:07:29;98073.13;;;11.57;49.92
15674;BME280;7937;48.090;16.212;2024-03-17T14:10:32;98068.50;;;11.52;49.91
15674;BME280;7937;48.090;16.212;2024-03-17T14:13:33;98065.28;;;11.50;49.38
15674;BME280;7937;48.090;16.212;2024-03-17T14:16:34;98066.25;;;11.61;49.62
15674;BME280;7937;48.090;16.212;2024-03-17T14:19:35;98057.16;;;11.45;50.92
15674;BME280;7937;48.090;16.212;2024-03-17T14:22:37;98054.97;;;11.42;49.75
15674;BME280;7937;48.090;16.212;2024-03-17T14:25:39;98052.53;;;11.41;50.34
15674;BME280;7937;48.090;16.212;2024-03-17T14:28:40;98035.91;;;11.22;51.20
15674;BME280;7937;48.090;16.212;2024-03-17T14:31:41;98043.34;;;11.20;50.83
15674;BME280;7937;48.090;16.212;2024-03-17T14:34:46;98033.72;;;11.19;51.21
15674;BME280;7937;48.090;16.212;2024-03-17T14:37:48;98032.84;;;11.01;52.00
15674;BME280;7937;48.090;16.212;2024-03-17T14:40:52;98006.78;;;11.03;51.14
15674;BME280;7937;48.090;16.212;2024-03-17T14:43:54;98025.25;;;11.22;52.13
15674;BME280;7937;48.090;16.212;2024-03-17T14:46:55;98017.94;;;11.17;51.15
15674;BME280;7937;48.090;16.212;2024-03-17T14:49:56;98013.94;;;11.03;52.46
15674;BME280;7937;48.090;16.212;2024-03-17T14:52:57;98002.16;;;10.99;51.08
15674;BME280;7937;48.090;16.212;2024-03-17T14:55:58;98010.59;;;10.96;52.59
15674;BME280;7937;48.090;16.212;2024-03-17T14:58:59;98015.38;;;10.82;52.94
15674;BME280;7937;48.090;16.212;2024-03-17T15:02:01;98006.97;;;11.14;51.30
15674;BME280;7937;48.090;16.212;2024-03-17T15:05:02;98011.47;;;11.13;50.97
15674;BME280;7937;48.090;16.212;2024-03-17T15:08:03;97990.88;;;10.97;51.27
15674;BME280;7937;48.090;16.212;2024-03-17T15:11:04;98008.28;;;10.88;52.82
15674;BME280;7937;48.090;16.212;2024-03-17T15:14:08;98011.44;;;10.84;52.25
15674;BME280;7937;48.090;16.212;2024-03-17T15:17:12;98012.59;;;10.77;54.28
15674;BME280;7937;48.090;16.212;2024-03-17T15:20:13;98009.00;;;10.83;53.33
15674;BME280;7937;48.090;16.212;2024-03-17T15:23:17;98012.34;;;10.90;52.65
15674;BME280;7937;48.090;16.212;2024-03-17T15:26:21;98009.47;;;10.80;54.53
15674;BME280;7937;48.090;16.212;2024-03-17T15:29:23;98010.06;;;10.58;55.81
15674;BME280;7937;48.090;16.212;2024-03-17T15:32:24;98003.38;;;10.56;56.01
15674;BME280;7937;48.090;16.212;2024-03-17T15:35:25;98008.56;;;10.74;52.44
15674;BME280;7937;48.090;16.212;2024-03-17T15:38:31;98012.53;;;10.60;54.18
15674;BME280;7937;48.090;16.212;2024-03-17T15:41:35;98016.00;;;10.49;53.59
15674;BME280;7937;48.090;16.212;2024-03-17T15:44:37;98014.31;;;10.83;51.83
15674;BME280;7937;48.090;16.212;2024-03-17T15:47:38;97992.28;;;10.36;56.06
15674;BME280;7937;48.090;16.212;2024-03-17T15:50:39;98006.75;;;10.51;53.57
15674;BME280;7937;48.090;16.212;2024-03-17T15:53:49;98013.56;;;10.24;57.20
15674;BME280;7937;48.090;16.212;2024-03-17T15:56:50;98011.44;;;10.02;58.71
15674;BME280;7937;48.090;16.212;2024-03-17T15:59:51;98016.03;;;9.83;60.51
15674;BME280;7937;48.090;16.212;2024-03-17T16:02:55;98010.22;;;9.75;61.28
15674;BME280;7937;48.090;16.212;2024-03-17T16:06:11;97999.25;;;9.83;56.72
15674;BME280;7937;48.090;16.212;2024-03-17T16:09:14;97974.63;;;9.99;53.88
15674;BME280;7937;48.090;16.212;2024-03-17T16:12:15;97989.94;;;10.16;54.70
15674;BME280;7937;48.090;16.212;2024-03-17T16:15:16;97996.06;;;10.16;53.61
15674;BME280;7937;48.090;16.212;2024-03-17T16:18:17;98001.41;;;10.28;53.74
15674;BME280;7937;48.090;16.212;2024-03-17T16:21:22;98008.78;;;10.02;56.15
15674;BME280;7937;48.090;16.212;2024-03-17T16:24:24;98015.13;;;9.90;56.94